Flight Track Log - Related Links

Times and Time Zones

All times are in EDT time to prevent confusion due to time zone crossing. See the CPZ5805 flight status page for this flight to view local times or setup timezone preferences in your user account.

Time Position Orientation Groundspeed Altitude Reporting Facility
EDT Latitude Longitude Course Direction KTS MPH feet Rate Location/Type
Sun 11:48:34 AM 44.8500 -93.2000 117° Southeast 165 190 2,500  Level Minneapolis TRACON
Sun 11:49:00 AM 44.8358 -93.1669 121° Southeast 193 222 3,000 1,862 Climbing Minneapolis Center
Sun 11:50:00 AM 44.7610 -92.7618 111° Southeast  Level Estimated
Sun 11:50:01 AM 44.8069 -93.0706 113° Southeast 269 310 5,200  Level Minneapolis Center
Sun 11:51:00 AM 44.7203 -92.6090 113° Southeast  Level Estimated
Sun 11:51:15 AM 44.7689 -92.9467 113° Southeast 285 328 9,100  Level Minneapolis Center
Sun 11:52:00 AM 44.6794 -92.4563 125° Southeast  Level Estimated
Sun 11:52:17 AM 44.7361 -92.8319 112° Southeast 316 364 11,100  Level Minneapolis Center
Sun 11:53:00 AM 44.6382 -92.3039 117° Southeast  Level Estimated
Sun 11:53:18 AM 44.6986 -92.7011 112° Southeast 361 415 13,000  Level Minneapolis Center
Sun 11:54:20 AM 44.6575 -92.5644 113° Southeast 379 436 15,300 2,226 Climbing Minneapolis Center
Sun 11:55:22 AM 44.6064 -92.4308 118° Southeast 388 447 17,600 2,098 Climbing Minneapolis Center
Sun 11:56:23 AM 44.5547 -92.2958 118° Southeast 390 449 19,600 1,854 Climbing Minneapolis Center
Sun 11:57:25 AM 44.5014 -92.1536 118° Southeast 405 466 21,400 1,790 Climbing Minneapolis Center
Sun 11:58:27 AM 44.4328 -91.9769 118° Southeast 425 489 23,300 1,659 Climbing Minneapolis Center
Sun 11:59:28 AM 44.3747 -91.8247 118° Southeast 440 506 24,800 1,415 Climbing Minneapolis Center
Sun 12:00:30 PM 44.3161 -91.6725 118° Southeast 445 512 26,200 1,268 Climbing Minneapolis Center
Sun 12:01:31 PM 44.2539 -91.5164 119° Southeast 456 525 27,400 976 Climbing Minneapolis Center
Sun 12:02:33 PM 44.2050 -91.3897 118° Southeast 461 531 28,200 1,024 Climbing Minneapolis Center
Sun 12:03:34 PM 44.1261 -91.1889 119° Southeast 471 542 29,500 1,220 Climbing Minneapolis Center
Sun 12:04:36 PM 44.0631 -91.0283 119° Southeast 475 547 30,700 1,113 Climbing Minneapolis Center
Sun 12:05:38 PM 44.0003 -90.8697 119° Southeast 473 544 31,800 1,073 Climbing Minneapolis Center
Sun 12:06:39 PM 43.9378 -90.7117 119° Southeast 470 541 32,900 1,024 Climbing Minneapolis Center
Sun 12:07:41 PM 43.8844 -90.5311 112° Southeast 463 533 33,900 968 Climbing Minneapolis Center
Sun 12:08:43 PM 43.8519 -90.3611 105° East 457 526 34,900 537 Climbing Minneapolis Center
Sun 12:09:44 PM 43.8136 -90.1633 105° East 457 526 35,000 49 Climbing Minneapolis Center
Sun 12:10:46 PM 43.7819 -89.9953 105° East 453 521 35,000  Level Minneapolis Center
Sun 12:11:47 PM 43.7486 -89.8289 105° East 450 518 35,000  Level Minneapolis Center
Sun 12:12:49 PM 43.7150 -89.6622 106° East 450 518 35,000  Level Minneapolis Center
Sun 12:13:50 PM 43.6864 -89.5236 106° East 450 518 35,000  Level Minneapolis Center
Sun 12:14:52 PM 43.6475 -89.3314 106° East 446 513 35,000  Level Minneapolis Center
Sun 12:15:36 PM 43.6183 -89.1919 106° East 451 519 35,000  Level Chicago Center
Sun 12:16:38 PM 43.5842 -89.0264 106° East 448 516 35,000  Level Chicago Center
Sun 12:17:40 PM 43.5494 -88.8608 106° East 449 517 35,000  Level Chicago Center
Sun 12:18:42 PM 43.5142 -88.6936 106° East 453 521 35,000  Level Chicago Center
Sun 12:19:43 PM 43.4808 -88.5378 106° East 450 518 35,000  Level Chicago Center
Sun 12:20:45 PM 43.4439 -88.3667 107° East 452 520 35,000  Level Chicago Center
Sun 12:21:47 PM 43.4072 -88.1875 106° East 443 510 35,000  Level Chicago Center
Sun 12:22:49 PM 43.3706 -88.0225 107° East 448 516 35,000  Level Chicago Center
Sun 12:23:51 PM 43.3297 -87.8347 107° East 442 509 35,000  Level Chicago Center
Sun 12:24:53 PM 43.2942 -87.6717 107° East 444 511 35,000  Level Chicago Center
Sun 12:25:55 PM 43.2567 -87.5058 107° East 452 520 35,000  Level Chicago Center
Sun 12:26:57 PM 43.2242 -87.3597 107° East 444 511 35,000  Level Chicago Center
Sun 12:27:58 PM 43.1875 -87.1978 107° East 444 511 35,000  Level Chicago Center
Sun 12:29:00 PM 43.1433 -87.0044 107° East 443 510 35,000  Level Chicago Center
Sun 12:30:02 PM 43.1067 -86.8439 107° East 445 512 35,000  Level Chicago Center
Sun 12:31:04 PM 43.0697 -86.6861 108° East 438 504 35,000  Level Chicago Center
Sun 12:32:06 PM 43.0331 -86.5283 108° East 438 504 35,000  Level Chicago Center
Sun 12:33:08 PM 42.9956 -86.3697 108° East 442 509 35,000  Level Chicago Center
Sun 12:34:10 PM 42.9508 -86.1794 108° East 445 512 35,000  Level Chicago Center
Sun 12:35:12 PM 42.9133 -86.0258 108° East 439 505 35,000  Level Chicago Center
Sun 12:36:13 PM 42.8772 -85.8725 108° East 436 502 35,000  Level Chicago Center
Sun 12:37:15 PM 42.8400 -85.7178 108° East 437 503 35,000  Level Chicago Center
Sun 12:38:17 PM 42.8017 -85.5617 108° East 437 503 35,000  Level Chicago Center
Sun 12:39:19 PM 42.7464 -85.3803 112° Southeast 436 502 35,000  Level Chicago Center
Sun 12:40:21 PM 42.6947 -85.2331 115° Southeast 432 497 35,000  Level Chicago Center
Sun 12:41:23 PM 42.6431 -85.0878 116° Southeast 430 495 35,000  Level Chicago Center
Sun 12:42:25 PM 42.5906 -84.9414 116° Southeast 431 496 35,000  Level Chicago Center
Sun 12:43:27 PM 42.5389 -84.7953 116° Southeast 431 496 35,000  Level Chicago Center
Sun 12:44:29 PM 42.4856 -84.6483 116° Southeast 433 498 35,000  Level Chicago Center
Sun 12:45:33 PM 42.4211 -84.4819 118° Southeast 439 505 35,000  Level Cleveland Center
Sun 12:46:33 PM 42.3697 -84.3353 115° Southeast 439 505 35,000  Level Cleveland Center
Sun 12:47:33 PM 42.3181 -84.1947 116° Southeast 439 505 35,000  Level Cleveland Center
Sun 12:48:33 PM 42.2639 -84.0514 117° Southeast 434 499 35,000  Level Cleveland Center
Sun 12:49:33 PM 42.2061 -83.8939 116° Southeast 434 499 35,000  Level Cleveland Center
Sun 12:50:33 PM 42.1539 -83.7511 116° Southeast 434 499 35,000  Level Cleveland Center
Sun 12:51:33 PM 42.1014 -83.6086 116° Southeast 434 499 35,000  Level Cleveland Center
Sun 12:52:33 PM 42.0525 -83.4803 117° Southeast 429 494 35,000  Level Cleveland Center
Sun 12:53:33 PM 41.9872 -83.3461 123° Southeast 429 494 35,000  Level Cleveland Center
Sun 12:54:33 PM 41.9214 -83.2203 125° Southeast 422 486 35,000  Level Cleveland Center
Sun 12:55:33 PM 41.8453 -83.0778 126° Southeast 422 486 35,000  Level Cleveland Center
Sun 12:56:33 PM 41.7792 -82.9500 125° Southeast 422 486 35,000  Level Cleveland Center
Sun 12:57:33 PM 41.7108 -82.8222 126° Southeast 417 480 35,000  Level Cleveland Center
Sun 12:58:33 PM 41.6544 -82.7175 126° Southeast 417 480 35,000  Level Cleveland Center
Sun 12:59:33 PM 41.5717 -82.5622 125° Southeast 417 480 35,000  Level Cleveland Center
Sun 01:00:33 PM 41.5050 -82.4353 125° Southeast 423 487 35,000  Level Cleveland Center
Sun 01:01:33 PM 41.4342 -82.3058 126° Southeast 423 487 35,000  Level Cleveland Center
Sun 01:02:33 PM 41.3672 -82.1794 125° Southeast 423 487 35,000  Level Cleveland Center
Sun 01:03:33 PM 41.3275 -82.0375 110° East 429 494 35,000 -800 Level Cleveland Center
Sun 01:04:33 PM 41.2897 -81.8819 108° East 434 499 33,400 -2,300 Descending Cleveland Center
Sun 01:05:33 PM 41.2475 -81.7236 109° East 444 511 30,400 -3,000 Descending Cleveland Center
Sun 01:06:33 PM 41.2053 -81.5683 110° East 450 518 27,400 -2,900 Descending Cleveland Center
Sun 01:07:33 PM 41.1689 -81.4244 109° East 437 503 24,600 -2,700 Descending Cleveland Center
Sun 01:08:33 PM 41.1281 -81.2861 111° Southeast 388 447 22,000 -2,600 Descending Cleveland Center
Sun 01:09:33 PM 41.0914 -81.1617 111° Southeast 368 423 19,400 -2,300 Descending Cleveland Center
Sun 01:10:33 PM 41.0522 -81.0678 119° Southeast 357 411 17,400 -2,300 Descending Cleveland Center
Sun 01:11:33 PM 40.9983 -80.9381 119° Southeast 362 417 14,800 -2,500 Descending Cleveland Center
Sun 01:12:33 PM 40.9550 -80.8250 117° Southeast 357 411 12,400 -2,300 Descending Cleveland Center
Sun 01:13:33 PM 40.8925 -80.7369 133° Southeast 351 404 10,200 -1,400 Descending Cleveland Center
Sun 01:14:33 PM 40.8175 -80.6764 149° Southeast 297 342 9,600 -1,000 Descending Cleveland Center
Sun 01:15:33 PM 40.7614 -80.6269 146° Southeast 279 321 8,200 -1,450 Descending Cleveland Center
Sun 01:16:33 PM 40.7008 -80.5694 144° Southeast 270 311 6,700 -1,450 Descending Cleveland Center
Sun 01:17:33 PM 40.6444 -80.5147 144° Southeast 264 304 5,300 -1,150 Descending Cleveland Center
Sun 01:18:33 PM 40.5819 -80.4736 153° Southeast 252 290 4,400 -700 Descending Cleveland Center
Sun 01:19:33 PM 40.5342 -80.4464 157° South 226 260 3,900 -500 Descending Cleveland Center

Login

Don't have an account? Register now (free) for customized features, flight alerts, and more!